Time;durP1;ratioP1;P1;durP2;ratioP2;P2;SDS_P1;SDS_P2;PMS_P1;PMS_P2;Temp;Humidity;BMP_temperature;BMP_pressure;BME280_temperature;BME280_humidity;BME280_pressure;Samples;Min_cycle;Max_cycle;Signal;HPM_P1;HPM_P2
2022/12/22 03:28:08;;;;;;;26.90;12.40;;;;;;;3.02;61.59;98714.54;103286;1302;113468;-69
2022/12/22 03:30:39;;;;;;;26.20;10.70;;;;;;;2.97;61.66;98713.48;103316;1293;97534;-67
2022/12/22 03:33:10;;;;;;;24.80;10.20;;;;;;;2.96;61.45;98723.16;103245;1296;108065;-67
2022/12/22 03:35:38;;;;;;;24.00;11.00;;;;;;;2.93;61.89;98721.55;103267;1300;97631;-68
2022/12/22 03:38:06;;;;;;;27.20;12.30;;;;;;;2.92;61.92;98720.91;103288;1297;97712;-68
2022/12/22 03:40:34;;;;;;;22.90;10.70;;;;;;;2.91;61.73;98722.53;103144;1298;112777;-69
2022/12/22 03:49:08;;;;;;;24.70;10.10;;;;;;;2.90;62.15;98720.13;103256;1300;99301;-67
2022/12/22 03:51:46;;;;;;;26.60;11.70;;;;;;;2.90;62.04;98723.09;103314;1300;98335;-69
2022/12/22 03:54:23;;;;;;;24.00;10.90;;;;;;;2.90;62.57;98722.77;103340;1301;112574;-67
2022/12/22 03:56:55;;;;;;;25.40;11.00;;;;;;;2.87;62.21;98720.80;103261;1301;96522;-69
2022/12/22 03:59:23;;;;;;;26.50;10.90;;;;;;;2.85;62.39;98719.52;103277;1301;109151;-67
2022/12/22 04:01:56;;;;;;;25.80;10.70;;;;;;;2.82;62.38;98719.27;103145;1297;99321;-68
2022/12/22 04:04:26;;;;;;;24.10;10.30;;;;;;;2.80;62.38;98714.80;103337;1298;99779;-69
2022/12/22 04:06:56;;;;;;;24.00;10.20;;;;;;;2.78;62.38;98719.30;103243;1300;112993;-69
2022/12/22 04:09:26;;;;;;;24.40;10.50;;;;;;;2.75;62.54;98715.21;103279;1302;99413;-68
2022/12/22 04:14:41;;;;;;;23.00;10.10;;;;;;;2.75;62.39;98715.56;103261;1301;99205;-68
2022/12/22 04:17:10;;;;;;;25.00;10.90;;;;;;;2.76;62.84;98714.12;103332;1296;100267;-67
2022/12/22 04:19:38;;;;;;;23.90;10.40;;;;;;;2.77;62.50;98711.09;103298;1295;113192;-68
2022/12/22 04:22:06;;;;;;;22.50;9.90;;;;;;;2.80;62.78;98714.63;103297;1300;99385;-67
2022/12/22 04:24:34;;;;;;;24.80;11.00;;;;;;;2.82;62.86;98713.15;103265;1297;108004;-67
2022/12/22 04:27:05;;;;;;;25.00;10.20;;;;;;;2.83;62.67;98712.04;103247;1302;99296;-67
2022/12/22 04:29:33;;;;;;;26.90;10.30;;;;;;;2.86;63.01;98715.78;103314;1302;99233;-70
2022/12/22 04:32:01;;;;;;;24.50;10.70;;;;;;;2.86;62.70;98717.15;103301;1301;113007;-71
2022/12/22 04:34:32;;;;;;;26.70;10.40;;;;;;;2.88;63.02;98718.33;103307;1287;97776;-70
2022/12/22 04:37:00;;;;;;;23.70;10.70;;;;;;;2.89;62.83;98720.00;103346;1285;106818;-70
2022/12/22 04:39:46;;;;;;;25.40;10.80;;;;;;;2.88;62.80;98716.00;103292;1302;99464;-69
2022/12/22 04:42:17;;;;;;;23.70;11.10;;;;;;;2.88;62.88;98712.55;103228;1297;96565;-69
2022/12/22 04:44:45;;;;;;;25.40;11.70;;;;;;;2.86;62.94;98712.60;103295;1295;111649;-69
2022/12/22 04:47:17;;;;;;;24.00;10.80;;;;;;;2.87;62.58;98714.67;103044;1294;150826;-68
2022/12/22 04:49:45;;;;;;;23.00;10.00;;;;;;;2.89;62.83;98714.41;103254;1280;107927;-71
2022/12/22 04:52:13;;;;;;;25.70;10.80;;;;;;;2.90;62.88;98715.06;103265;1301;99350;-69
2022/12/22 04:54:41;;;;;;;26.60;12.10;;;;;;;2.89;62.88;98710.21;103165;1294;97598;-69
2022/12/22 04:57:09;;;;;;;25.40;11.80;;;;;;;2.90;62.81;98709.11;103203;1294;113116;-69
2022/12/22 04:59:38;;;;;;;22.80;10.40;;;;;;;2.89;62.90;98711.60;103254;1301;99293;-69
2022/12/22 05:02:06;;;;;;;24.60;11.40;;;;;;;2.87;63.08;98706.80;103036;1297;107636;-69
2022/12/22 05:04:39;;;;;;;23.60;10.80;;;;;;;2.84;62.75;98703.60;103214;1308;99221;-68
2022/12/22 05:07:07;;;;;;;26.10;10.70;;;;;;;2.82;63.05;98703.33;103249;1301;99114;-67
2022/12/22 05:09:41;;;;;;;27.50;11.30;;;;;;;2.84;62.93;98704.13;103232;1294;113245;-67
2022/12/22 05:14:56;;;;;;;25.60;11.90;;;;;;;2.84;62.90;98704.30;103189;1286;107893;-68
2022/12/22 05:17:24;;;;;;;27.80;12.10;;;;;;;2.83;62.73;98703.10;103230;1294;96524;-67
2022/12/22 05:19:52;;;;;;;28.10;12.10;;;;;;;2.82;62.95;98700.02;103210;1301;97592;-68
2022/12/22 05:22:20;;;;;;;26.60;12.00;;;;;;;2.79;63.09;98705.22;103202;1294;113057;-67
2022/12/22 05:24:48;;;;;;;25.90;12.00;;;;;;;2.78;63.07;98705.09;103185;1295;99322;-67
2022/12/22 05:27:16;;;;;;;27.50;11.30;;;;;;;2.78;62.96;98706.66;103175;1293;108016;-67
2022/12/22 05:29:45;;;;;;;27.50;12.20;;;;;;;2.78;63.01;98706.48;103208;1301;99105;-66
2022/12/22 05:32:13;;;;;;;27.70;12.50;;;;;;;2.79;63.21;98708.59;103240;1294;99220;-67
2022/12/22 05:34:41;;;;;;;26.10;12.40;;;;;;;2.79;62.94;98706.63;103287;1294;113144;-69
2022/12/22 05:37:09;;;;;;;28.20;12.50;;;;;;;2.80;63.13;98711.14;103241;1298;99264;-69
2022/12/22 05:39:37;;;;;;;26.90;12.60;;;;;;;2.81;63.21;98707.95;103294;1301;108064;-70
2022/12/22 05:42:06;;;;;;;28.30;13.40;;;;;;;2.81;63.17;98709.52;103390;1301;99211;-71
2022/12/22 05:44:36;;;;;;;26.20;12.30;;;;;;;2.81;63.32;98701.10;103340;1300;99316;-69
2022/12/22 05:47:04;;;;;;;29.80;14.40;;;;;;;2.81;63.29;98699.36;103256;1300;113902;-67
2022/12/22 05:49:33;;;;;;;27.60;12.60;;;;;;;2.80;63.41;98705.16;103283;1298;98994;-67
2022/12/22 05:52:01;;;;;;;27.20;13.10;;;;;;;2.80;63.38;98702.72;103265;1300;108429;-67
2022/12/22 05:54:28;;;;;;;27.90;13.80;;;;;;;2.81;63.24;98700.91;103199;1302;99234;-70
2022/12/22 05:56:56;;;;;;;27.90;12.10;;;;;;;2.82;63.03;98700.70;103243;1300;97595;-68
2022/12/22 05:59:25;;;;;;;29.90;13.40;;;;;;;2.82;63.20;98700.38;103121;1304;113157;-68
2022/12/22 06:01:56;;;;;;;31.00;14.30;;;;;;;2.79;63.38;98697.16;103335;1294;99232;-68
2022/12/22 06:04:26;;;;;;;29.60;12.80;;;;;;;2.79;63.23;98697.18;103309;1294;107990;-69
2022/12/22 06:06:56;;;;;;;29.50;13.60;;;;;;;2.78;63.55;98694.41;103371;1301;97776;-71
2022/12/22 06:09:24;;;;;;;30.50;13.50;;;;;;;2.78;63.29;98701.77;103292;1300;99301;-70
2022/12/22 06:11:52;;;;;;;29.60;14.00;;;;;;;2.79;63.43;98704.17;103055;1298;112192;-70
2022/12/22 06:14:20;;;;;;;31.60;13.60;;;;;;;2.78;63.36;98704.73;103232;1293;100356;-70
2022/12/22 06:16:48;;;;;;;31.30;15.20;;;;;;;2.78;63.59;98706.66;103215;1305;107861;-71
2022/12/22 06:19:16;;;;;;;28.90;14.00;;;;;;;2.77;63.46;98704.44;103311;1300;99438;-69
2022/12/22 06:21:44;;;;;;;32.50;13.70;;;;;;;2.76;63.32;98704.14;103282;1294;96556;-69
2022/12/22 06:24:12;;;;;;;32.60;14.00;;;;;;;2.75;63.80;98703.66;103290;1298;113102;-69
2022/12/22 06:26:40;;;;;;;28.70;14.00;;;;;;;2.74;63.41;98705.63;103314;1302;99124;-71
2022/12/22 06:29:08;;;;;;;28.90;13.80;;;;;;;2.75;63.53;98710.50;103225;1298;107488;-70
2022/12/22 06:31:36;;;;;;;30.00;12.80;;;;;;;2.76;63.83;98705.54;103170;1294;99245;-70
2022/12/22 06:34:05;;;;;;;28.90;13.70;;;;;;;2.76;63.90;98705.89;103345;1300;99220;-69
2022/12/22 06:36:33;;;;;;;29.30;13.90;;;;;;;2.75;63.60;98702.61;103339;1301;112644;-70
2022/12/22 06:39:04;;;;;;;33.90;16.20;;;;;;;2.76;63.64;98708.16;103328;1294;99318;-68
2022/12/22 06:44:24;;;;;;;27.90;13.10;;;;;;;2.80;63.63;98713.75;103312;1295;99252;-69
2022/12/22 06:46:52;;;;;;;29.40;14.80;;;;;;;2.81;63.88;98712.86;103322;1301;99213;-68
2022/12/22 06:49:22;;;;;;;31.10;15.40;;;;;;;2.81;63.83;98712.33;103196;1301;113104;-68
2022/12/22 06:51:50;;;;;;;30.20;14.70;;;;;;;2.83;63.91;98705.76;103261;1295;97658;-71
2022/12/22 06:54:19;;;;;;;29.90;15.40;;;;;;;2.84;63.90;98709.90;103340;1298;107631;-68
2022/12/22 06:56:55;;;;;;;31.30;15.00;;;;;;;2.87;64.00;98715.35;103259;1301;99237;-68
2022/12/22 06:59:23;;;;;;;31.40;14.90;;;;;;;2.89;63.97;98713.52;103316;1288;99222;-70
2022/12/22 07:01:51;;;;;;;32.40;14.50;;;;;;;2.91;63.98;98711.52;103320;1288;112208;-68
2022/12/22 07:04:22;;;;;;;31.10;14.70;;;;;;;2.93;63.90;98706.34;103364;1301;99191;-68
2022/12/22 07:06:55;;;;;;;28.90;14.20;;;;;;;2.93;63.80;98700.72;103272;1294;108152;-69
2022/12/22 07:09:23;;;;;;;30.70;14.10;;;;;;;2.93;63.83;98696.70;103285;1298;97762;-68
2022/12/22 07:11:54;;;;;;;33.40;15.70;;;;;;;2.94;63.93;98696.13;103220;1294;97628;-68
2022/12/22 07:14:22;;;;;;;30.10;15.20;;;;;;;2.96;64.05;98694.99;103775;1302;113063;-68
2022/12/22 07:16:50;;;;;;;31.90;15.00;;;;;;;2.96;64.35;98690.95;103206;1301;97907;-69
2022/12/22 07:19:21;;;;;;;31.10;14.80;;;;;;;2.95;64.10;98688.89;103160;1300;108292;-70
2022/12/22 07:21:50;;;;;;;28.40;14.20;;;;;;;2.95;63.84;98690.81;103168;1298;99252;-70
2022/12/22 07:24:24;;;;;;;33.80;14.70;;;;;;;2.97;64.17;98685.99;103215;1294;100651;-70
2022/12/22 07:26:55;;;;;;;29.60;15.00;;;;;;;2.98;63.98;98687.85;103229;1295;112689;-68
2022/12/22 07:29:27;;;;;;;33.40;16.70;;;;;;;3.00;64.35;98692.71;103265;1294;99379;-68
2022/12/22 07:31:58;;;;;;;35.30;16.50;;;;;;;3.01;63.94;98689.53;103324;1293;107324;-67
2022/12/22 07:34:26;;;;;;;31.50;15.20;;;;;;;3.04;64.31;98690.61;103310;1303;99337;-68
2022/12/22 07:36:54;;;;;;;29.00;13.90;;;;;;;3.06;64.45;98690.98;103321;1301;97654;-68
2022/12/22 07:39:22;;;;;;;30.70;15.40;;;;;;;3.08;64.05;98685.45;103306;1295;112979;-67
2022/12/22 07:44:39;;;;;;;32.70;16.60;;;;;;;3.04;64.44;98681.48;103280;1300;108231;-67
2022/12/22 07:47:07;;;;;;;32.70;14.90;;;;;;;3.02;64.47;98683.65;103248;1295;99312;-67
2022/12/22 07:52:23;;;;;;;35.70;16.60;;;;;;;2.99;64.83;98678.56;103321;1285;113206;-69
2022/12/22 07:54:51;;;;;;;31.70;15.50;;;;;;;2.98;64.91;98674.40;103316;1294;99998;-69
2022/12/22 07:57:19;;;;;;;31.90;15.60;;;;;;;2.97;65.21;98676.52;103266;1294;108938;-72
2022/12/22 07:59:47;;;;;;;34.70;16.60;;;;;;;2.96;64.50;98675.16;103305;1297;99308;-68
2022/12/22 08:02:15;;;;;;;34.10;17.70;;;;;;;2.97;64.88;98676.70;103357;1294;99996;-68
2022/12/22 08:04:47;;;;;;;31.50;15.60;;;;;;;2.98;64.66;98675.80;103309;1293;113095;-69
2022/12/22 08:07:15;;;;;;;33.30;17.20;;;;;;;2.98;65.01;98674.02;103324;1294;96497;-68
2022/12/22 08:09:43;;;;;;;30.20;15.50;;;;;;;2.99;64.74;98669.08;103322;1294;108111;-68
2022/12/22 08:12:14;;;;;;;35.80;17.90;;;;;;;3.02;65.34;98667.91;103258;1301;100647;-68
2022/12/22 08:14:44;;;;;;;33.00;16.60;;;;;;;3.05;65.14;98660.60;103350;1294;99259;-68
2022/12/22 08:17:19;;;;;;;38.80;16.70;;;;;;;3.07;65.03;98656.98;103155;1297;113441;-69
2022/12/22 08:19:47;;;;;;;32.90;16.70;;;;;;;3.09;64.97;98654.05;103305;1301;99040;-68
2022/12/22 08:22:22;;;;;;;32.30;16.00;;;;;;;3.12;64.80;98660.55;103291;1291;108211;-67
2022/12/22 08:24:53;;;;;;;33.90;16.60;;;;;;;3.16;65.27;98658.48;103218;1300;99338;-68
2022/12/22 08:27:51;;;;;;;32.30;15.80;;;;;;;3.18;65.01;98652.80;103304;1293;99321;-68
2022/12/22 08:30:21;;;;;;;;;;;;;;;3.20;65.34;98652.48;103335;1295;112185;-68
2022/12/22 08:32:53;;;;;;;36.20;16.70;;;;;;;3.21;65.19;98654.40;103308;1300;96546;-68
2022/12/22 08:35:24;;;;;;;38.00;17.60;;;;;;;3.24;65.32;98662.27;103282;1301;108346;-67
2022/12/22 08:37:53;;;;;;;33.20;16.80;;;;;;;3.26;65.02;98663.41;103302;1296;99439;-68
2022/12/22 08:40:29;;;;;;;34.00;16.00;;;;;;;3.30;65.19;98657.61;103365;1295;99323;-68
2022/12/22 08:43:03;;;;;;;34.80;17.10;;;;;;;3.34;65.16;98653.89;103312;1297;112564;-67
2022/12/22 08:45:35;;;;;;;36.30;16.60;;;;;;;3.39;65.14;98657.16;103305;1293;99148;-67
2022/12/22 08:48:06;;;;;;;31.70;15.00;;;;;;;3.44;65.16;98658.70;103289;1293;108093;-67
2022/12/22 08:50:34;;;;;;;32.70;16.20;;;;;;;3.48;65.48;98657.95;103250;1294;99260;-68
2022/12/22 08:53:09;;;;;;;36.40;17.00;;;;;;;3.50;65.33;98657.34;103095;1300;96945;-68
2022/12/22 08:55:58;;;;;;;33.30;16.90;;;;;;;3.50;65.18;98655.95;103117;1296;112381;-68
2022/12/22 08:58:26;;;;;;;37.50;16.50;;;;;;;3.50;65.18;98651.39;103343;1294;100002;-70
2022/12/22 09:00:54;;;;;;;32.30;15.60;;;;;;;3.49;65.30;98647.56;103294;1292;108071;-67
2022/12/22 09:03:25;;;;;;;35.70;17.20;;;;;;;3.50;65.27;98646.80;103276;1300;96678;-69
2022/12/22 09:06:03;;;;;;;34.90;16.70;;;;;;;3.52;65.17;98646.52;103279;1287;99843;-69
2022/12/22 09:08:31;;;;;;;32.90;16.00;;;;;;;3.55;65.17;98646.36;103235;1293;113694;-69
2022/12/22 09:11:06;;;;;;;34.10;17.20;;;;;;;3.60;65.08;98651.06;103292;1293;99219;-68
2022/12/22 09:13:34;;;;;;;34.40;17.20;;;;;;;3.63;65.28;98648.29;103236;1287;108048;-68
2022/12/22 09:16:09;;;;;;;33.80;16.70;;;;;;;3.66;65.31;98649.53;103246;1301;99903;-69
2022/12/22 09:18:38;;;;;;;33.50;16.50;;;;;;;3.66;65.26;98641.59;103309;1294;99331;-69
2022/12/22 09:21:06;;;;;;;32.60;15.90;;;;;;;3.67;65.33;98638.75;103207;1294;113239;-69
2022/12/22 09:23:34;;;;;;;33.00;15.30;;;;;;;3.68;65.26;98639.08;103281;1294;99260;-68
2022/12/22 09:26:10;;;;;;;36.20;17.70;;;;;;;3.67;65.46;98638.55;103233;1301;107809;-68
2022/12/22 09:28:39;;;;;;;34.40;16.60;;;;;;;3.66;65.43;98638.98;103061;1297;99325;-68
2022/12/22 09:31:14;;;;;;;35.10;17.80;;;;;;;3.66;65.29;98638.81;103219;1278;98286;-68
2022/12/22 09:33:43;;;;;;;34.10;16.50;;;;;;;3.67;65.45;98636.33;103267;1294;113108;-69
2022/12/22 09:36:19;;;;;;;33.30;18.10;;;;;;;3.67;65.31;98633.13;103245;1294;97710;-68
2022/12/22 09:38:51;;;;;;;35.80;17.70;;;;;;;3.69;65.44;98631.29;103301;1294;107444;-69
2022/12/22 09:41:56;;;;;;;33.90;17.00;;;;;;;3.72;65.39;98635.37;103351;1300;99300;-69
2022/12/22 09:44:30;;;;;;;37.70;17.50;;;;;;;3.76;65.37;98630.25;103287;1296;96484;-67
2022/12/22 09:47:18;;;;;;;33.90;15.70;;;;;;;3.82;65.41;98624.68;103307;1295;113063;-67
2022/12/22 09:49:50;;;;;;;33.50;16.10;;;;;;;3.87;65.31;98623.53;103337;1293;99325;-67
2022/12/22 09:52:43;;;;;;;32.00;15.70;;;;;;;3.93;65.31;98617.80;103335;1294;107471;-68
2022/12/22 09:55:36;;;;;;;36.50;17.40;;;;;;;4.00;65.52;98614.64;103323;1294;99301;-68
2022/12/22 09:58:19;;;;;;;31.70;15.50;;;;;;;4.08;65.46;98607.49;103297;1295;99254;-68
2022/12/22 10:01:05;;;;;;;32.80;16.10;;;;;;;4.14;65.31;98602.98;103329;1297;115322;-68
2022/12/22 10:03:54;;;;;;;35.00;16.00;;;;;;;4.18;65.40;98604.89;103287;1295;99311;-69
2022/12/22 10:06:57;;;;;;;29.70;15.10;;;;;;;4.24;65.36;98598.95;103228;1294;108237;-68
2022/12/22 10:09:31;;;;;;;31.30;15.80;;;;;;;4.26;65.39;98593.41;103257;1301;99233;-68
2022/12/22 10:12:26;;;;;;;31.90;17.10;;;;;;;4.25;65.44;98590.97;103311;1302;99125;-68
2022/12/22 10:14:54;;;;;;;37.20;16.50;;;;;;;4.25;65.35;98584.14;103285;1294;113206;-68
2022/12/22 10:17:33;;;;;;;30.50;15.60;;;;;;;4.24;65.22;98578.06;103289;1300;99198;-68
2022/12/22 10:20:25;;;;;;;30.90;15.40;;;;;;;4.22;65.41;98572.38;103276;1296;107879;-69
2022/12/22 10:22:59;;;;;;;29.30;15.50;;;;;;;4.19;65.43;98566.55;103164;1297;96588;-67
2022/12/22 10:25:34;;;;;;;;;;;;;;;4.15;65.46;98563.61;103138;1297;99371;-69
2022/12/22 10:28:30;;;;;;;30.60;14.30;;;;;;;4.10;65.46;98554.96;103107;1296;113152;-69
2022/12/22 10:31:12;;;;;;;29.60;13.60;;;;;;;4.06;65.50;98559.23;103322;1294;99959;-69
2022/12/22 10:33:44;;;;;;;29.30;14.30;;;;;;;4.06;65.54;98560.97;103245;1277;108064;-67
2022/12/22 10:36:25;;;;;;;28.70;14.70;;;;;;;4.07;65.38;98558.06;103219;1303;99272;-67
2022/12/22 10:38:59;;;;;;;30.80;14.60;;;;;;;4.09;65.46;98544.98;103275;1294;100557;-67
2022/12/22 10:41:36;;;;;;;30.70;14.70;;;;;;;4.11;65.44;98546.27;103329;1294;113114;-68
2022/12/22 10:44:17;;;;;;;30.50;14.70;;;;;;;4.10;65.48;98538.80;103298;1294;97506;-68
2022/12/22 10:46:54;;;;;;;28.80;14.70;;;;;;;4.10;65.52;98534.23;103224;1294;108137;-68
2022/12/22 10:49:41;;;;;;;;;;;;;;;4.12;65.46;98529.77;103109;1300;97868;-68
2022/12/22 10:52:30;;;;;;;28.50;13.60;;;;;;;4.13;65.50;98531.77;103128;1297;99340;-68
2022/12/22 10:55:29;;;;;;;28.70;13.30;;;;;;;4.16;65.46;98520.57;103304;1301;112676;-68
2022/12/22 10:58:09;;;;;;;31.90;14.90;;;;;;;4.21;65.48;98519.27;103111;1301;96542;-68
2022/12/22 11:00:37;;;;;;;31.00;15.70;;;;;;;4.24;65.57;98522.08;103238;1295;107577;-67
2022/12/22 11:03:30;;;;;;;29.40;14.00;;;;;;;4.27;65.45;98517.34;103238;1294;99880;-68
2022/12/22 11:06:00;;;;;;;30.00;14.90;;;;;;;4.30;65.37;98510.15;103287;1294;99202;-68
2022/12/22 11:08:33;;;;;;;35.90;16.60;;;;;;;4.32;65.42;98502.66;103357;1294;115348;-68
2022/12/22 11:11:42;;;;;;;30.20;14.70;;;;;;;4.34;65.43;98491.85;103369;1295;99050;-67
2022/12/22 11:14:31;;;;;;;30.80;14.00;;;;;;;4.36;65.36;98485.42;103272;1286;108382;-68
2022/12/22 11:17:10;;;;;;;31.10;14.60;;;;;;;4.39;65.53;98478.77;103283;1302;99297;-71
2022/12/22 11:20:09;;;;;;;29.60;13.90;;;;;;;4.45;65.36;98486.15;103369;1294;99263;-71
2022/12/22 11:22:52;;;;;;;32.00;16.10;;;;;;;4.48;65.34;98489.33;103321;1294;113079;-69
2022/12/22 11:25:55;;;;;;;31.20;15.50;;;;;;;4.48;65.27;98483.89;103362;1294;99265;-71
2022/12/22 11:28:29;;;;;;;28.00;12.70;;;;;;;4.51;65.30;98481.42;103291;1297;108137;-70
2022/12/22 11:31:00;;;;;;;33.50;15.40;;;;;;;4.54;65.22;98480.88;103320;1294;99382;-70
2022/12/22 11:33:33;;;;;;;30.80;14.20;;;;;;;4.57;65.19;98478.97;103292;1294;99214;-68
2022/12/22 11:36:08;;;;;;;30.80;14.50;;;;;;;4.58;65.04;98468.89;103178;1294;112890;-69
2022/12/22 11:38:45;;;;;;;30.50;15.40;;;;;;;4.57;65.00;98473.16;103280;1294;96544;-70
2022/12/22 11:41:32;;;;;;;30.00;14.40;;;;;;;4.57;65.09;98466.02;103105;1301;106550;-70
2022/12/22 11:44:29;;;;;;;28.60;13.60;;;;;;;4.60;65.11;98468.08;103161;1295;99213;-71
2022/12/22 11:47:13;;;;;;;29.70;13.70;;;;;;;4.66;65.02;98461.46;102901;1306;96875;-69
2022/12/22 11:49:44;;;;;;;32.70;15.70;;;;;;;4.66;65.10;98458.42;103262;1294;113163;-67
2022/12/22 11:52:46;;;;;;;32.20;15.80;;;;;;;4.67;65.06;98458.73;103240;1295;99273;-67
2022/12/22 11:55:20;;;;;;;30.90;15.30;;;;;;;4.66;64.89;98448.95;103247;1303;107473;-68
2022/12/22 11:57:58;;;;;;;28.20;13.80;;;;;;;4.66;65.15;98448.63;103253;1297;99220;-69
2022/12/22 12:00:37;;;;;;;31.40;14.90;;;;;;;4.66;65.03;98453.16;103264;1297;96557;-70
2022/12/22 12:03:54;;;;;;;33.30;15.10;;;;;;;4.70;65.08;98445.38;103310;1294;113005;-69
2022/12/22 12:06:51;;;;;;;29.70;14.50;;;;;;;4.70;64.99;98438.88;103297;1294;99955;-68
2022/12/22 12:09:37;;;;;;;;;;;;;;;4.71;64.84;98435.31;103308;1301;108419;-68
2022/12/22 12:12:24;;;;;;;29.60;13.20;;;;;;;4.67;65.05;98431.50;103291;1296;100062;-68
2022/12/22 12:14:59;;;;;;;29.70;13.10;;;;;;;4.66;65.07;98437.19;103269;1293;99205;-67
2022/12/22 12:17:55;;;;;;;27.80;13.90;;;;;;;4.64;65.04;98436.42;103327;1294;112779;-68
2022/12/22 12:20:56;;;;;;;30.00;14.30;;;;;;;4.64;64.95;98432.39;103279;1295;99350;-67
2022/12/22 12:23:39;;;;;;;31.90;14.90;;;;;;;4.62;64.85;98426.20;102810;1294;108192;-68
2022/12/22 12:26:24;;;;;;;;;;;;;;;4.61;64.99;98421.14;103221;1298;99172;-68
2022/12/22 12:28:58;;;;;;;29.80;14.00;;;;;;;4.55;64.84;98425.00;103242;1294;98288;-67
2022/12/22 12:31:35;;;;;;;30.40;14.80;;;;;;;4.52;64.78;98422.40;103323;1301;113208;-68
2022/12/22 12:34:14;;;;;;;28.90;13.70;;;;;;;4.50;64.84;98422.63;103190;1303;96507;-67
2022/12/22 12:36:48;;;;;;;32.60;15.00;;;;;;;4.50;64.85;98417.41;103256;1293;107570;-69
2022/12/22 12:39:36;;;;;;;30.50;15.30;;;;;;;4.49;64.90;98421.83;103264;1301;99398;-68
2022/12/22 12:42:33;;;;;;;32.50;15.60;;;;;;;4.49;64.74;98424.80;103152;1296;99282;-70
2022/12/22 12:45:04;;;;;;;31.30;14.80;;;;;;;4.47;64.78;98419.67;103275;1294;111569;-68
2022/12/22 12:47:34;;;;;;;31.50;15.40;;;;;;;4.47;64.80;98417.20;103148;1303;99356;-69
2022/12/22 12:50:42;;;;;;;33.10;15.70;;;;;;;4.44;64.82;98421.73;103018;1299;107336;-67
2022/12/22 12:53:11;;;;;;;35.20;15.10;;;;;;;4.45;64.88;98425.05;103229;1301;99459;-71
2022/12/22 12:55:41;;;;;;;30.20;14.90;;;;;;;4.46;64.81;98427.64;103130;1296;99215;-67
2022/12/22 12:58:31;;;;;;;30.60;15.50;;;;;;;4.47;64.87;98428.77;103201;1294;113062;-68
2022/12/22 13:01:12;;;;;;;32.10;15.70;;;;;;;4.50;64.84;98421.43;103360;1292;97683;-69
2022/12/22 13:03:44;;;;;;;29.60;14.20;;;;;;;4.53;64.91;98413.20;103186;1301;107919;-68
2022/12/22 13:06:44;;;;;;;31.70;15.40;;;;;;;4.54;64.86;98396.27;103238;1297;99221;-67
2022/12/22 13:09:27;;;;;;;33.40;15.00;;;;;;;4.54;64.87;98395.01;103368;1293;96672;-68
2022/12/22 13:12:38;;;;;;;33.10;15.50;;;;;;;4.59;64.96;98398.63;103283;1293;113687;-68
2022/12/22 13:15:26;;;;;;;33.70;15.90;;;;;;;4.61;64.91;98398.27;103299;1287;99332;-68
2022/12/22 13:17:58;;;;;;;35.10;15.50;;;;;;;4.62;64.86;98395.11;103328;1293;108647;-67
2022/12/22 13:20:37;;;;;;;31.60;15.60;;;;;;;4.61;64.91;98394.62;103255;1295;99191;-68
2022/12/22 13:23:15;;;;;;;30.50;14.70;;;;;;;4.59;64.67;98393.85;103373;1293;99232;-70
2022/12/22 13:26:06;;;;;;;33.80;15.10;;;;;;;4.55;64.72;98384.61;103328;1298;113067;-67
2022/12/22 13:28:41;;;;;;;32.50;15.90;;;;;;;4.52;64.88;98386.93;103316;1297;96447;-70
2022/12/22 13:31:24;;;;;;;30.60;14.70;;;;;;;4.50;64.80;98390.19;103316;1301;107245;-68
2022/12/22 13:34:42;;;;;;;34.10;15.90;;;;;;;4.49;64.85;98387.63;103253;1294;99214;-69
2022/12/22 13:37:46;;;;;;;32.10;16.00;;;;;;;4.46;64.78;98381.44;103292;1294;98325;-68
2022/12/22 13:40:19;;;;;;;32.30;15.30;;;;;;;4.46;64.84;98382.17;103287;1298;113157;-68
2022/12/22 13:43:04;;;;;;;33.50;16.10;;;;;;;4.44;64.78;98383.32;103322;1299;99334;-67
2022/12/22 13:45:48;;;;;;;32.60;15.40;;;;;;;4.40;64.74;98384.64;103295;1297;108208;-68
2022/12/22 13:48:26;;;;;;;32.50;15.60;;;;;;;4.38;64.75;98391.42;103354;1295;99220;-66
2022/12/22 13:51:02;;;;;;;34.70;16.10;;;;;;;4.36;64.86;98391.50;103342;1300;99165;-66
2022/12/22 13:53:38;;;;;;;33.30;15.80;;;;;;;4.35;64.78;98398.06;103179;1295;112446;-68
2022/12/22 13:56:36;;;;;;;34.90;16.20;;;;;;;4.35;64.87;98385.81;103341;1295;99189;-68
2022/12/22 13:59:32;;;;;;;35.40;16.80;;;;;;;4.34;64.86;98383.73;103308;1294;108180;-70
2022/12/22 14:02:17;;;;;;;34.00;17.10;;;;;;;4.34;64.87;98385.50;103330;1293;99251;-70
2022/12/22 14:05:14;;;;;;;31.40;15.40;;;;;;;4.33;64.83;98388.86;103249;1285;96910;-69
2022/12/22 14:08:06;;;;;;;32.80;15.40;;;;;;;4.32;64.88;98385.43;103236;1293;111145;-69
2022/12/22 14:10:37;;;;;;;33.30;15.90;;;;;;;4.30;64.91;98382.02;103252;1297;99199;-70
2022/12/22 14:13:20;;;;;;;30.20;14.40;;;;;;;4.29;64.92;98380.66;103235;1294;107155;-69
2022/12/22 14:16:03;;;;;;;30.90;14.30;;;;;;;4.28;64.96;98380.38;103187;1304;99185;-69
2022/12/22 14:18:37;;;;;;;31.90;15.10;;;;;;;4.29;64.91;98377.88;103289;1294;99307;-69
2022/12/22 14:21:09;;;;;;;29.40;14.70;;;;;;;4.29;64.92;98379.48;103203;1300;111390;-69
2022/12/22 14:23:42;;;;;;;33.40;16.20;;;;;;;4.27;64.94;98380.84;103277;1301;99250;-69
2022/12/22 14:26:24;;;;;;;32.90;16.50;;;;;;;4.26;64.83;98383.14;103178;1294;108896;-69
2022/12/22 14:28:57;;;;;;;32.50;15.40;;;;;;;4.24;64.82;98380.10;103212;1300;99398;-68
2022/12/22 14:31:25;;;;;;;31.30;15.40;;;;;;;4.24;64.76;98378.19;103300;1301;99091;-69
2022/12/22 14:34:04;;;;;;;33.90;15.70;;;;;;;4.24;64.77;98376.23;103258;1301;113072;-68
2022/12/22 14:36:44;;;;;;;32.60;15.70;;;;;;;4.24;64.72;98384.09;103238;1301;96440;-69
2022/12/22 14:39:30;;;;;;;33.60;15.90;;;;;;;4.23;64.81;98383.86;103299;1301;107610;-69
2022/12/22 14:42:13;;;;;;;30.00;14.40;;;;;;;4.21;64.64;98384.83;103299;1294;99382;-68
2022/12/22 14:44:47;;;;;;;29.90;13.70;;;;;;;4.19;64.55;98379.52;103234;1294;99271;-67
2022/12/22 14:47:27;;;;;;;31.70;15.60;;;;;;;4.18;64.64;98379.20;103120;1297;112650;-68
2022/12/22 14:50:01;;;;;;;28.10;13.50;;;;;;;4.16;64.62;98370.15;103199;1293;96567;-68
2022/12/22 14:52:44;;;;;;;32.20;14.90;;;;;;;4.15;64.64;98368.81;103272;1287;107558;-68
2022/12/22 14:55:33;;;;;;;30.90;14.20;;;;;;;4.15;64.64;98370.94;103328;1300;99364;-67
2022/12/22 14:58:12;;;;;;;32.70;15.70;;;;;;;4.14;64.42;98369.45;103288;1294;99212;-67
2022/12/22 15:00:47;;;;;;;28.90;14.60;;;;;;;4.12;64.39;98364.80;103312;1301;112558;-66
2022/12/22 15:03:31;;;;;;;32.60;15.20;;;;;;;4.11;64.55;98362.57;103303;1301;99338;-69
2022/12/22 15:06:27;;;;;;;32.90;14.70;;;;;;;4.12;64.58;98366.04;103280;1294;108013;-68
2022/12/22 15:09:05;;;;;;;29.90;14.00;;;;;;;4.13;64.58;98361.60;103080;1298;99262;-67
2022/12/22 15:11:48;;;;;;;31.20;14.90;;;;;;;4.14;64.52;98359.60;103257;1295;99561;-69
2022/12/22 15:14:24;;;;;;;30.40;14.40;;;;;;;4.14;64.48;98355.04;103209;1295;112672;-66
2022/12/22 15:17:00;;;;;;;32.10;14.70;;;;;;;4.14;64.60;98355.70;103180;1300;96743;-67
2022/12/22 15:19:38;;;;;;;28.40;13.40;;;;;;;4.16;64.66;98361.41;103280;1294;108054;-67
2022/12/22 15:22:10;;;;;;;30.70;13.80;;;;;;;4.16;64.62;98359.80;103223;1297;99301;-68
2022/12/22 15:24:39;;;;;;;32.50;15.30;;;;;;;4.18;64.49;98354.48;103277;1301;99985;-68
2022/12/22 15:27:10;;;;;;;30.30;13.90;;;;;;;4.17;64.56;98354.52;103230;1294;112259;-68
2022/12/22 15:29:39;;;;;;;31.90;14.70;;;;;;;4.19;64.60;98349.35;103111;1297;99273;-67
2022/12/22 15:32:14;;;;;;;31.00;15.20;;;;;;;4.19;64.47;98350.00;103251;1298;108097;-67
2022/12/22 15:34:45;;;;;;;32.00;14.60;;;;;;;4.16;64.50;98347.16;103321;1295;99288;-67
2022/12/22 15:37:13;;;;;;;31.00;15.00;;;;;;;4.15;64.60;98341.98;103131;1300;96676;-67
2022/12/22 15:39:42;;;;;;;32.90;16.00;;;;;;;4.15;64.46;98337.77;103276;1287;113245;-68
2022/12/22 15:42:11;;;;;;;31.30;14.80;;;;;;;4.14;64.46;98345.37;103204;1300;97497;-67